sensor_id;sensor_type;location;lat;lon;timestamp;P1;durP1;ratioP1;P2;durP2;ratioP2
21330;SDS011;10824;51.632;4.950;2022-09-23T00:01:07;5.15;;;2.30;;
21330;SDS011;10824;51.632;4.950;2022-09-23T00:03:37;5.18;;;2.45;;
21330;SDS011;10824;51.632;4.950;2022-09-23T00:06:08;5.32;;;2.53;;
21330;SDS011;10824;51.632;4.950;2022-09-23T00:08:46;5.78;;;2.63;;
21330;SDS011;10824;51.632;4.950;2022-09-23T00:11:16;6.68;;;2.95;;
21330;SDS011;10824;51.632;4.950;2022-09-23T00:13:45;4.57;;;2.38;;
21330;SDS011;10824;51.632;4.950;2022-09-23T00:16:16;26.40;;;5.10;;
21330;SDS011;10824;51.632;4.950;2022-09-23T00:18:45;3.97;;;2.38;;
21330;SDS011;10824;51.632;4.950;2022-09-23T00:21:14;2.75;;;1.90;;
21330;SDS011;10824;51.632;4.950;2022-09-23T00:23:42;5.60;;;2.63;;
21330;SDS011;10824;51.632;4.950;2022-09-23T00:26:13;5.75;;;2.42;;
21330;SDS011;10824;51.632;4.950;2022-09-23T00:28:42;5.78;;;2.50;;
21330;SDS011;10824;51.632;4.950;2022-09-23T00:31:16;4.43;;;2.42;;
21330;SDS011;10824;51.632;4.950;2022-09-23T00:33:45;6.03;;;2.42;;
21330;SDS011;10824;51.632;4.950;2022-09-23T00:36:18;4.32;;;2.13;;
21330;SDS011;10824;51.632;4.950;2022-09-23T00:38:45;4.22;;;3.13;;
21330;SDS011;10824;51.632;4.950;2022-09-23T00:41:12;5.63;;;2.58;;
21330;SDS011;10824;51.632;4.950;2022-09-23T00:43:44;5.68;;;2.25;;
21330;SDS011;10824;51.632;4.950;2022-09-23T00:46:17;3.30;;;2.17;;
21330;SDS011;10824;51.632;4.950;2022-09-23T00:48:56;4.80;;;2.35;;
21330;SDS011;10824;51.632;4.950;2022-09-23T00:51:46;6.20;;;3.00;;
21330;SDS011;10824;51.632;4.950;2022-09-23T00:54:20;3.95;;;2.50;;
21330;SDS011;10824;51.632;4.950;2022-09-23T00:56:49;8.50;;;2.42;;
21330;SDS011;10824;51.632;4.950;2022-09-23T00:59:17;7.03;;;2.75;;
21330;SDS011;10824;51.632;4.950;2022-09-23T01:01:46;6.43;;;2.80;;
21330;SDS011;10824;51.632;4.950;2022-09-23T01:04:15;5.60;;;2.97;;
21330;SDS011;10824;51.632;4.950;2022-09-23T01:06:42;7.40;;;4.05;;
21330;SDS011;10824;51.632;4.950;2022-09-23T01:09:09;5.38;;;2.50;;
21330;SDS011;10824;51.632;4.950;2022-09-23T01:17:02;7.25;;;2.70;;
21330;SDS011;10824;51.632;4.950;2022-09-23T01:33:57;4.97;;;2.85;;
21330;SDS011;10824;51.632;4.950;2022-09-23T01:36:44;8.30;;;2.70;;
21330;SDS011;10824;51.632;4.950;2022-09-23T01:44:20;6.03;;;2.53;;
21330;SDS011;10824;51.632;4.950;2022-09-23T01:47:05;4.82;;;2.25;;
21330;SDS011;10824;51.632;4.950;2022-09-23T01:53:04;4.88;;;2.60;;
21330;SDS011;10824;51.632;4.950;2022-09-23T01:55:38;4.90;;;3.67;;
21330;SDS011;10824;51.632;4.950;2022-09-23T01:58:26;3.67;;;2.40;;
21330;SDS011;10824;51.632;4.950;2022-09-23T02:01:04;7.30;;;2.95;;
21330;SDS011;10824;51.632;4.950;2022-09-23T02:03:34;5.88;;;3.22;;
21330;SDS011;10824;51.632;4.950;2022-09-23T02:06:22;10.05;;;3.60;;
21330;SDS011;10824;51.632;4.950;2022-09-23T02:09:04;8.05;;;3.22;;
21330;SDS011;10824;51.632;4.950;2022-09-23T02:11:37;7.20;;;2.90;;
21330;SDS011;10824;51.632;4.950;2022-09-23T02:14:16;7.85;;;2.50;;
21330;SDS011;10824;51.632;4.950;2022-09-23T02:16:50;6.72;;;2.63;;
21330;SDS011;10824;51.632;4.950;2022-09-23T02:19:23;4.80;;;2.67;;
21330;SDS011;10824;51.632;4.950;2022-09-23T02:22:01;6.93;;;2.70;;
21330;SDS011;10824;51.632;4.950;2022-09-23T02:24:32;4.60;;;2.58;;
21330;SDS011;10824;51.632;4.950;2022-09-23T02:37:54;7.47;;;3.30;;
21330;SDS011;10824;51.632;4.950;2022-09-23T02:45:53;7.25;;;3.15;;
21330;SDS011;10824;51.632;4.950;2022-09-23T02:48:32;6.75;;;3.55;;
21330;SDS011;10824;51.632;4.950;2022-09-23T02:51:07;6.85;;;3.42;;
21330;SDS011;10824;51.632;4.950;2022-09-23T02:53:35;10.13;;;3.63;;
21330;SDS011;10824;51.632;4.950;2022-09-23T02:59:00;7.30;;;3.35;;
21330;SDS011;10824;51.632;4.950;2022-09-23T03:18:32;9.35;;;4.60;;
21330;SDS011;10824;51.632;4.950;2022-09-23T03:21:07;10.07;;;4.53;;
21330;SDS011;10824;51.632;4.950;2022-09-23T03:23:40;12.07;;;4.47;;
21330;SDS011;10824;51.632;4.950;2022-09-23T03:26:15;8.50;;;4.15;;
21330;SDS011;10824;51.632;4.950;2022-09-23T03:28:49;11.95;;;4.60;;
21330;SDS011;10824;51.632;4.950;2022-09-23T03:31:17;13.80;;;5.55;;
21330;SDS011;10824;51.632;4.950;2022-09-23T03:33:53;8.57;;;3.92;;
21330;SDS011;10824;51.632;4.950;2022-09-23T03:36:25;8.43;;;4.47;;
21330;SDS011;10824;51.632;4.950;2022-09-23T03:39:25;7.10;;;3.75;;
21330;SDS011;10824;51.632;4.950;2022-09-23T03:41:58;11.98;;;4.32;;
21330;SDS011;10824;51.632;4.950;2022-09-23T03:44:28;14.55;;;5.32;;
21330;SDS011;10824;51.632;4.950;2022-09-23T03:47:00;6.32;;;3.40;;
21330;SDS011;10824;51.632;4.950;2022-09-23T03:51:58;6.53;;;3.45;;
21330;SDS011;10824;51.632;4.950;2022-09-23T03:54:27;8.35;;;3.90;;
21330;SDS011;10824;51.632;4.950;2022-09-23T03:56:58;9.95;;;3.67;;
21330;SDS011;10824;51.632;4.950;2022-09-23T03:59:26;8.68;;;3.28;;
21330;SDS011;10824;51.632;4.950;2022-09-23T04:01:53;6.57;;;3.17;;
21330;SDS011;10824;51.632;4.950;2022-09-23T04:04:20;8.60;;;3.50;;
21330;SDS011;10824;51.632;4.950;2022-09-23T04:06:47;6.57;;;3.65;;
21330;SDS011;10824;51.632;4.950;2022-09-23T04:09:14;10.85;;;3.50;;
21330;SDS011;10824;51.632;4.950;2022-09-23T04:11:42;5.80;;;3.60;;
21330;SDS011;10824;51.632;4.950;2022-09-23T04:14:09;13.80;;;5.40;;
21330;SDS011;10824;51.632;4.950;2022-09-23T04:16:37;8.98;;;4.13;;
21330;SDS011;10824;51.632;4.950;2022-09-23T04:19:04;9.43;;;3.92;;
21330;SDS011;10824;51.632;4.950;2022-09-23T04:21:37;6.90;;;3.78;;
21330;SDS011;10824;51.632;4.950;2022-09-23T04:24:04;7.32;;;4.45;;
21330;SDS011;10824;51.632;4.950;2022-09-23T04:26:31;10.55;;;4.38;;
21330;SDS011;10824;51.632;4.950;2022-09-23T04:28:59;7.80;;;3.97;;
21330;SDS011;10824;51.632;4.950;2022-09-23T04:31:27;4.55;;;3.13;;
21330;SDS011;10824;51.632;4.950;2022-09-23T04:33:54;6.22;;;3.85;;
21330;SDS011;10824;51.632;4.950;2022-09-23T04:36:21;6.80;;;3.00;;
21330;SDS011;10824;51.632;4.950;2022-09-23T04:38:48;4.80;;;3.15;;
21330;SDS011;10824;51.632;4.950;2022-09-23T04:41:16;7.93;;;3.38;;
21330;SDS011;10824;51.632;4.950;2022-09-23T04:43:44;8.45;;;3.28;;
21330;SDS011;10824;51.632;4.950;2022-09-23T04:46:12;7.85;;;3.70;;
21330;SDS011;10824;51.632;4.950;2022-09-23T04:48:40;9.02;;;3.90;;
21330;SDS011;10824;51.632;4.950;2022-09-23T04:51:12;7.82;;;3.45;;
21330;SDS011;10824;51.632;4.950;2022-09-23T04:53:41;6.05;;;3.97;;
21330;SDS011;10824;51.632;4.950;2022-09-23T04:56:11;6.72;;;3.53;;
21330;SDS011;10824;51.632;4.950;2022-09-23T04:58:40;10.00;;;3.65;;
21330;SDS011;10824;51.632;4.950;2022-09-23T05:01:09;10.38;;;5.22;;
21330;SDS011;10824;51.632;4.950;2022-09-23T05:03:37;9.43;;;4.30;;
21330;SDS011;10824;51.632;4.950;2022-09-23T05:06:05;8.32;;;3.53;;
21330;SDS011;10824;51.632;4.950;2022-09-23T05:08:33;10.13;;;4.28;;
21330;SDS011;10824;51.632;4.950;2022-09-23T05:11:01;8.00;;;3.42;;
21330;SDS011;10824;51.632;4.950;2022-09-23T05:13:30;6.65;;;3.78;;
21330;SDS011;10824;51.632;4.950;2022-09-23T05:16:01;6.88;;;3.70;;
21330;SDS011;10824;51.632;4.950;2022-09-23T05:18:34;21.17;;;4.28;;
21330;SDS011;10824;51.632;4.950;2022-09-23T05:21:02;7.13;;;4.57;;
21330;SDS011;10824;51.632;4.950;2022-09-23T05:23:29;7.15;;;3.83;;
21330;SDS011;10824;51.632;4.950;2022-09-23T05:25:57;10.00;;;3.97;;
21330;SDS011;10824;51.632;4.950;2022-09-23T05:28:30;8.80;;;3.75;;
21330;SDS011;10824;51.632;4.950;2022-09-23T05:31:05;10.02;;;4.65;;
21330;SDS011;10824;51.632;4.950;2022-09-23T05:33:50;10.38;;;4.53;;
21330;SDS011;10824;51.632;4.950;2022-09-23T05:36:18;8.23;;;3.67;;
21330;SDS011;10824;51.632;4.950;2022-09-23T05:38:47;9.18;;;3.47;;
21330;SDS011;10824;51.632;4.950;2022-09-23T05:41:16;9.48;;;4.05;;
21330;SDS011;10824;51.632;4.950;2022-09-23T05:43:44;7.45;;;4.75;;
21330;SDS011;10824;51.632;4.950;2022-09-23T05:48:46;10.52;;;4.55;;
21330;SDS011;10824;51.632;4.950;2022-09-23T05:51:14;10.60;;;4.03;;
21330;SDS011;10824;51.632;4.950;2022-09-23T05:54:20;6.20;;;3.83;;
21330;SDS011;10824;51.632;4.950;2022-09-23T05:56:47;7.75;;;4.32;;
21330;SDS011;10824;51.632;4.950;2022-09-23T05:59:13;9.05;;;3.90;;
21330;SDS011;10824;51.632;4.950;2022-09-23T06:01:40;10.68;;;5.40;;
21330;SDS011;10824;51.632;4.950;2022-09-23T06:04:10;16.88;;;4.45;;
21330;SDS011;10824;51.632;4.950;2022-09-23T06:06:39;9.60;;;4.65;;
21330;SDS011;10824;51.632;4.950;2022-09-23T06:09:11;7.70;;;4.32;;
21330;SDS011;10824;51.632;4.950;2022-09-23T06:11:39;8.57;;;4.00;;
21330;SDS011;10824;51.632;4.950;2022-09-23T06:14:08;10.38;;;5.28;;
21330;SDS011;10824;51.632;4.950;2022-09-23T06:16:38;7.80;;;4.43;;
21330;SDS011;10824;51.632;4.950;2022-09-23T06:19:05;8.25;;;3.65;;
21330;SDS011;10824;51.632;4.950;2022-09-23T06:21:36;7.53;;;4.03;;
21330;SDS011;10824;51.632;4.950;2022-09-23T06:24:05;9.25;;;4.05;;
21330;SDS011;10824;51.632;4.950;2022-09-23T06:26:33;8.20;;;4.10;;
21330;SDS011;10824;51.632;4.950;2022-09-23T06:29:07;12.15;;;4.78;;
21330;SDS011;10824;51.632;4.950;2022-09-23T06:31:36;11.18;;;5.03;;
21330;SDS011;10824;51.632;4.950;2022-09-23T06:34:03;10.02;;;5.30;;
21330;SDS011;10824;51.632;4.950;2022-09-23T06:36:39;14.90;;;6.07;;
21330;SDS011;10824;51.632;4.950;2022-09-23T06:39:11;19.10;;;5.00;;
21330;SDS011;10824;51.632;4.950;2022-09-23T06:41:39;13.20;;;5.97;;
21330;SDS011;10824;51.632;4.950;2022-09-23T06:44:10;14.23;;;5.07;;
21330;SDS011;10824;51.632;4.950;2022-09-23T06:46:38;8.52;;;4.78;;
21330;SDS011;10824;51.632;4.950;2022-09-23T06:49:05;8.88;;;4.57;;
21330;SDS011;10824;51.632;4.950;2022-09-23T06:51:33;12.07;;;4.55;;
21330;SDS011;10824;51.632;4.950;2022-09-23T06:53:59;11.30;;;4.95;;
21330;SDS011;10824;51.632;4.950;2022-09-23T06:56:26;12.70;;;5.35;;
21330;SDS011;10824;51.632;4.950;2022-09-23T06:58:54;10.77;;;4.40;;
21330;SDS011;10824;51.632;4.950;2022-09-23T07:01:21;5.50;;;3.60;;
21330;SDS011;10824;51.632;4.950;2022-09-23T07:03:48;6.05;;;3.67;;
21330;SDS011;10824;51.632;4.950;2022-09-23T07:06:15;10.75;;;4.93;;
21330;SDS011;10824;51.632;4.950;2022-09-23T07:08:43;8.15;;;4.32;;
21330;SDS011;10824;51.632;4.950;2022-09-23T07:11:12;9.80;;;4.25;;
21330;SDS011;10824;51.632;4.950;2022-09-23T07:13:41;11.73;;;5.60;;
21330;SDS011;10824;51.632;4.950;2022-09-23T07:16:08;16.75;;;7.20;;
21330;SDS011;10824;51.632;4.950;2022-09-23T07:18:37;14.45;;;6.75;;
21330;SDS011;10824;51.632;4.950;2022-09-23T07:21:14;11.13;;;4.82;;
21330;SDS011;10824;51.632;4.950;2022-09-23T07:23:43;9.18;;;5.40;;
21330;SDS011;10824;51.632;4.950;2022-09-23T07:26:12;8.18;;;4.40;;
21330;SDS011;10824;51.632;4.950;2022-09-23T07:28:40;8.20;;;4.50;;
21330;SDS011;10824;51.632;4.950;2022-09-23T07:31:08;8.43;;;3.67;;
21330;SDS011;10824;51.632;4.950;2022-09-23T07:33:43;8.82;;;4.07;;
21330;SDS011;10824;51.632;4.950;2022-09-23T07:36:11;7.60;;;4.43;;
21330;SDS011;10824;51.632;4.950;2022-09-23T07:38:42;6.32;;;3.70;;
21330;SDS011;10824;51.632;4.950;2022-09-23T07:41:12;8.32;;;3.45;;
21330;SDS011;10824;51.632;4.950;2022-09-23T07:43:41;8.02;;;3.65;;
21330;SDS011;10824;51.632;4.950;2022-09-23T07:46:14;5.70;;;4.63;;
21330;SDS011;10824;51.632;4.950;2022-09-23T07:48:43;6.22;;;3.33;;
21330;SDS011;10824;51.632;4.950;2022-09-23T07:51:12;6.75;;;3.53;;
21330;SDS011;10824;51.632;4.950;2022-09-23T07:53:46;10.27;;;4.43;;
21330;SDS011;10824;51.632;4.950;2022-09-23T07:56:14;9.65;;;4.03;;
21330;SDS011;10824;51.632;4.950;2022-09-23T07:58:42;8.05;;;2.90;;
21330;SDS011;10824;51.632;4.950;2022-09-23T08:01:10;6.43;;;2.72;;
21330;SDS011;10824;51.632;4.950;2022-09-23T08:03:38;8.73;;;2.80;;
21330;SDS011;10824;51.632;4.950;2022-09-23T08:06:09;6.40;;;3.10;;
21330;SDS011;10824;51.632;4.950;2022-09-23T08:08:38;9.07;;;3.70;;
21330;SDS011;10824;51.632;4.950;2022-09-23T08:11:10;9.60;;;3.95;;
21330;SDS011;10824;51.632;4.950;2022-09-23T08:13:38;10.13;;;3.42;;
21330;SDS011;10824;51.632;4.950;2022-09-23T08:16:06;7.03;;;3.42;;
21330;SDS011;10824;51.632;4.950;2022-09-23T08:18:33;4.95;;;3.08;;
21330;SDS011;10824;51.632;4.950;2022-09-23T08:21:01;7.30;;;3.38;;
21330;SDS011;10824;51.632;4.950;2022-09-23T08:23:28;5.68;;;2.65;;
21330;SDS011;10824;51.632;4.950;2022-09-23T08:25:59;5.65;;;2.53;;
21330;SDS011;10824;51.632;4.950;2022-09-23T08:28:29;4.60;;;2.47;;
21330;SDS011;10824;51.632;4.950;2022-09-23T08:30:57;6.13;;;2.40;;
21330;SDS011;10824;51.632;4.950;2022-09-23T08:33:24;9.27;;;2.67;;
21330;SDS011;10824;51.632;4.950;2022-09-23T08:35:52;6.75;;;2.53;;
21330;SDS011;10824;51.632;4.950;2022-09-23T08:38:25;7.13;;;2.75;;
21330;SDS011;10824;51.632;4.950;2022-09-23T08:40:53;7.75;;;2.88;;
21330;SDS011;10824;51.632;4.950;2022-09-23T08:43:29;5.38;;;2.53;;
21330;SDS011;10824;51.632;4.950;2022-09-23T08:46:00;8.68;;;2.72;;
21330;SDS011;10824;51.632;4.950;2022-09-23T08:51:02;11.80;;;3.75;;
21330;SDS011;10824;51.632;4.950;2022-09-23T08:53:33;5.63;;;3.00;;
21330;SDS011;10824;51.632;4.950;2022-09-23T08:56:03;5.82;;;2.47;;
21330;SDS011;10824;51.632;4.950;2022-09-23T09:01:58;6.25;;;2.28;;
21330;SDS011;10824;51.632;4.950;2022-09-23T09:04:22;7.03;;;3.08;;
21330;SDS011;10824;51.632;4.950;2022-09-23T09:09:57;6.40;;;2.17;;
21330;SDS011;10824;51.632;4.950;2022-09-23T09:12:47;11.23;;;2.55;;
21330;SDS011;10824;51.632;4.950;2022-09-23T09:15:20;7.22;;;2.05;;
21330;SDS011;10824;51.632;4.950;2022-09-23T09:20:56;5.15;;;2.35;;
21330;SDS011;10824;51.632;4.950;2022-09-23T09:23:32;10.00;;;2.42;;
21330;SDS011;10824;51.632;4.950;2022-09-23T09:26:26;5.55;;;2.22;;
21330;SDS011;10824;51.632;4.950;2022-09-23T09:29:32;4.13;;;1.85;;
21330;SDS011;10824;51.632;4.950;2022-09-23T09:32:09;6.70;;;2.17;;
21330;SDS011;10824;51.632;4.950;2022-09-23T09:34:45;4.00;;;1.88;;
21330;SDS011;10824;51.632;4.950;2022-09-23T09:37:40;5.13;;;2.30;;
21330;SDS011;10824;51.632;4.950;2022-09-23T09:40:12;4.53;;;1.85;;
21330;SDS011;10824;51.632;4.950;2022-09-23T09:42:45;2.97;;;1.77;;
21330;SDS011;10824;51.632;4.950;2022-09-23T09:45:16;4.72;;;2.13;;
21330;SDS011;10824;51.632;4.950;2022-09-23T09:48:04;6.60;;;1.95;;
21330;SDS011;10824;51.632;4.950;2022-09-23T09:50:50;4.72;;;1.63;;
21330;SDS011;10824;51.632;4.950;2022-09-23T09:55:57;4.20;;;1.88;;
21330;SDS011;10824;51.632;4.950;2022-09-23T09:58:34;4.57;;;1.65;;
21330;SDS011;10824;51.632;4.950;2022-09-23T10:03:56;1.85;;;1.27;;
21330;SDS011;10824;51.632;4.950;2022-09-23T10:06:27;4.13;;;1.92;;
21330;SDS011;10824;51.632;4.950;2022-09-23T10:12:18;3.45;;;1.70;;
21330;SDS011;10824;51.632;4.950;2022-09-23T10:14:48;4.32;;;1.70;;
21330;SDS011;10824;51.632;4.950;2022-09-23T10:17:32;4.35;;;1.58;;
21330;SDS011;10824;51.632;4.950;2022-09-23T10:20:02;4.38;;;1.75;;
21330;SDS011;10824;51.632;4.950;2022-09-23T10:22:37;3.10;;;1.60;;
21330;SDS011;10824;51.632;4.950;2022-09-23T10:25:28;2.15;;;1.48;;
21330;SDS011;10824;51.632;4.950;2022-09-23T10:27:55;2.72;;;1.50;;
21330;SDS011;10824;51.632;4.950;2022-09-23T10:30:24;3.05;;;1.92;;
21330;SDS011;10824;51.632;4.950;2022-09-23T10:32:53;4.38;;;1.67;;
21330;SDS011;10824;51.632;4.950;2022-09-23T10:35:23;4.40;;;1.77;;
21330;SDS011;10824;51.632;4.950;2022-09-23T10:37:52;2.75;;;1.30;;
21330;SDS011;10824;51.632;4.950;2022-09-23T10:40:37;6.35;;;1.70;;
21330;SDS011;10824;51.632;4.950;2022-09-23T10:44:16;3.83;;;1.63;;
21330;SDS011;10824;51.632;4.950;2022-09-23T10:51:46;4.78;;;1.83;;
21330;SDS011;10824;51.632;4.950;2022-09-23T10:56:57;5.82;;;1.33;;
21330;SDS011;10824;51.632;4.950;2022-09-23T11:02:36;5.63;;;2.07;;
21330;SDS011;10824;51.632;4.950;2022-09-23T11:10:47;2.33;;;1.60;;
21330;SDS011;10824;51.632;4.950;2022-09-23T11:13:18;7.47;;;1.42;;
21330;SDS011;10824;51.632;4.950;2022-09-23T11:24:06;4.05;;;1.50;;
21330;SDS011;10824;51.632;4.950;2022-09-23T11:34:47;2.63;;;1.63;;
21330;SDS011;10824;51.632;4.950;2022-09-23T11:37:27;5.13;;;1.77;;
21330;SDS011;10824;51.632;4.950;2022-09-23T11:45:34;3.53;;;1.83;;
21330;SDS011;10824;51.632;4.950;2022-09-23T11:48:17;2.78;;;1.88;;
21330;SDS011;10824;51.632;4.950;2022-09-23T11:50:59;3.08;;;1.70;;
21330;SDS011;10824;51.632;4.950;2022-09-23T11:53:36;3.22;;;1.60;;
21330;SDS011;10824;51.632;4.950;2022-09-23T11:56:23;5.15;;;2.28;;
21330;SDS011;10824;51.632;4.950;2022-09-23T12:01:42;4.00;;;1.20;;
21330;SDS011;10824;51.632;4.950;2022-09-23T12:04:27;4.32;;;2.03;;
21330;SDS011;10824;51.632;4.950;2022-09-23T12:07:03;5.35;;;1.60;;
21330;SDS011;10824;51.632;4.950;2022-09-23T12:09:48;3.55;;;2.08;;
21330;SDS011;10824;51.632;4.950;2022-09-23T12:12:38;5.10;;;1.83;;
21330;SDS011;10824;51.632;4.950;2022-09-23T12:20:57;4.72;;;1.90;;
21330;SDS011;10824;51.632;4.950;2022-09-23T12:26:13;4.00;;;1.60;;
21330;SDS011;10824;51.632;4.950;2022-09-23T12:28:45;2.95;;;1.67;;
21330;SDS011;10824;51.632;4.950;2022-09-23T12:31:18;5.88;;;1.92;;
21330;SDS011;10824;51.632;4.950;2022-09-23T12:33:59;5.78;;;3.17;;
21330;SDS011;10824;51.632;4.950;2022-09-23T12:36:44;5.80;;;2.25;;
21330;SDS011;10824;51.632;4.950;2022-09-23T12:41:48;4.47;;;2.10;;
21330;SDS011;10824;51.632;4.950;2022-09-23T12:44:34;3.85;;;1.90;;
21330;SDS011;10824;51.632;4.950;2022-09-23T12:49:40;4.90;;;2.50;;
21330;SDS011;10824;51.632;4.950;2022-09-23T12:54:36;5.20;;;2.60;;
21330;SDS011;10824;51.632;4.950;2022-09-23T12:57:08;4.72;;;2.17;;
21330;SDS011;10824;51.632;4.950;2022-09-23T12:59:58;3.88;;;2.28;;
21330;SDS011;10824;51.632;4.950;2022-09-23T13:02:58;7.05;;;2.20;;
21330;SDS011;10824;51.632;4.950;2022-09-23T13:05:46;7.75;;;2.72;;
21330;SDS011;10824;51.632;4.950;2022-09-23T13:08:39;5.60;;;2.55;;
21330;SDS011;10824;51.632;4.950;2022-09-23T13:13:49;5.50;;;2.83;;
21330;SDS011;10824;51.632;4.950;2022-09-23T13:16:20;6.40;;;3.17;;
21330;SDS011;10824;51.632;4.950;2022-09-23T13:18:55;3.75;;;2.05;;
21330;SDS011;10824;51.632;4.950;2022-09-23T13:26:44;7.82;;;3.45;;
21330;SDS011;10824;51.632;4.950;2022-09-23T13:29:55;6.45;;;2.70;;
21330;SDS011;10824;51.632;4.950;2022-09-23T13:32:09;5.45;;;2.88;;
21330;SDS011;10824;51.632;4.950;2022-09-23T13:34:40;7.57;;;2.90;;
21330;SDS011;10824;51.632;4.950;2022-09-23T13:37:20;7.30;;;2.95;;
21330;SDS011;10824;51.632;4.950;2022-09-23T13:39:50;6.75;;;2.90;;
21330;SDS011;10824;51.632;4.950;2022-09-23T13:42:20;6.50;;;3.33;;
21330;SDS011;10824;51.632;4.950;2022-09-23T13:44:55;7.57;;;3.10;;
21330;SDS011;10824;51.632;4.950;2022-09-23T13:47:25;11.07;;;2.83;;
21330;SDS011;10824;51.632;4.950;2022-09-23T13:49:55;5.43;;;2.67;;
21330;SDS011;10824;51.632;4.950;2022-09-23T13:52:27;5.65;;;2.80;;
21330;SDS011;10824;51.632;4.950;2022-09-23T13:54:58;6.97;;;2.55;;
21330;SDS011;10824;51.632;4.950;2022-09-23T13:57:30;5.65;;;2.70;;
21330;SDS011;10824;51.632;4.950;2022-09-23T14:02:44;8.27;;;3.25;;
21330;SDS011;10824;51.632;4.950;2022-09-23T14:05:20;7.55;;;2.67;;
21330;SDS011;10824;51.632;4.950;2022-09-23T14:07:59;9.73;;;2.78;;
21330;SDS011;10824;51.632;4.950;2022-09-23T14:10:27;8.63;;;2.85;;
21330;SDS011;10824;51.632;4.950;2022-09-23T14:12:57;5.68;;;2.55;;
21330;SDS011;10824;51.632;4.950;2022-09-23T14:15:24;8.00;;;3.08;;
21330;SDS011;10824;51.632;4.950;2022-09-23T14:17:58;8.32;;;2.75;;
21330;SDS011;10824;51.632;4.950;2022-09-23T14:20:43;7.60;;;3.33;;
21330;SDS011;10824;51.632;4.950;2022-09-23T14:23:12;6.63;;;3.38;;
21330;SDS011;10824;51.632;4.950;2022-09-23T14:25:41;5.88;;;2.70;;
21330;SDS011;10824;51.632;4.950;2022-09-23T14:28:13;7.43;;;3.10;;
21330;SDS011;10824;51.632;4.950;2022-09-23T14:30:43;6.20;;;3.00;;
21330;SDS011;10824;51.632;4.950;2022-09-23T14:33:18;8.18;;;2.95;;
21330;SDS011;10824;51.632;4.950;2022-09-23T14:35:52;7.57;;;2.55;;
21330;SDS011;10824;51.632;4.950;2022-09-23T14:38:26;8.45;;;2.50;;
21330;SDS011;10824;51.632;4.950;2022-09-23T14:41:20;5.05;;;2.92;;
21330;SDS011;10824;51.632;4.950;2022-09-23T14:43:59;6.55;;;2.63;;
21330;SDS011;10824;51.632;4.950;2022-09-23T14:46:29;8.38;;;2.83;;
21330;SDS011;10824;51.632;4.950;2022-09-23T14:49:03;5.97;;;2.90;;
21330;SDS011;10824;51.632;4.950;2022-09-23T14:57:17;8.15;;;2.67;;
21330;SDS011;10824;51.632;4.950;2022-09-23T15:02:42;4.75;;;2.47;;
21330;SDS011;10824;51.632;4.950;2022-09-23T15:05:29;5.28;;;2.65;;
21330;SDS011;10824;51.632;4.950;2022-09-23T15:08:09;6.70;;;3.03;;
21330;SDS011;10824;51.632;4.950;2022-09-23T15:10:43;9.95;;;3.78;;
21330;SDS011;10824;51.632;4.950;2022-09-23T15:13:19;6.50;;;3.88;;
21330;SDS011;10824;51.632;4.950;2022-09-23T15:15:54;8.40;;;2.75;;
21330;SDS011;10824;51.632;4.950;2022-09-23T15:18:23;6.35;;;3.40;;
21330;SDS011;10824;51.632;4.950;2022-09-23T15:20:54;5.43;;;2.77;;
21330;SDS011;10824;51.632;4.950;2022-09-23T15:23:50;7.82;;;2.58;;
21330;SDS011;10824;51.632;4.950;2022-09-23T15:26:22;6.22;;;2.80;;
21330;SDS011;10824;51.632;4.950;2022-09-23T15:28:51;8.50;;;2.78;;
21330;SDS011;10824;51.632;4.950;2022-09-23T15:31:22;8.88;;;3.20;;
21330;SDS011;10824;51.632;4.950;2022-09-23T15:33:52;6.65;;;2.58;;
21330;SDS011;10824;51.632;4.950;2022-09-23T15:36:27;11.90;;;3.17;;
21330;SDS011;10824;51.632;4.950;2022-09-23T15:38:54;14.40;;;4.05;;
21330;SDS011;10824;51.632;4.950;2022-09-23T15:41:26;3.58;;;2.33;;
21330;SDS011;10824;51.632;4.950;2022-09-23T15:43:53;8.57;;;3.78;;
21330;SDS011;10824;51.632;4.950;2022-09-23T15:46:24;4.15;;;2.15;;
21330;SDS011;10824;51.632;4.950;2022-09-23T15:49:00;5.70;;;2.50;;
21330;SDS011;10824;51.632;4.950;2022-09-23T15:51:30;9.95;;;4.25;;
21330;SDS011;10824;51.632;4.950;2022-09-23T15:53:57;4.90;;;2.75;;
21330;SDS011;10824;51.632;4.950;2022-09-23T15:56:24;12.30;;;3.05;;
21330;SDS011;10824;51.632;4.950;2022-09-23T15:58:54;8.60;;;3.85;;
21330;SDS011;10824;51.632;4.950;2022-09-23T16:01:31;6.55;;;2.83;;
21330;SDS011;10824;51.632;4.950;2022-09-23T16:04:01;8.40;;;3.17;;
21330;SDS011;10824;51.632;4.950;2022-09-23T16:06:30;7.53;;;3.00;;
21330;SDS011;10824;51.632;4.950;2022-09-23T16:08:57;6.63;;;3.65;;
21330;SDS011;10824;51.632;4.950;2022-09-23T16:11:27;4.45;;;2.75;;
21330;SDS011;10824;51.632;4.950;2022-09-23T16:13:59;5.57;;;3.20;;
21330;SDS011;10824;51.632;4.950;2022-09-23T16:16:27;7.35;;;2.88;;
21330;SDS011;10824;51.632;4.950;2022-09-23T16:18:54;8.70;;;2.90;;
21330;SDS011;10824;51.632;4.950;2022-09-23T16:21:23;9.25;;;3.00;;
21330;SDS011;10824;51.632;4.950;2022-09-23T16:23:51;5.35;;;2.42;;
21330;SDS011;10824;51.632;4.950;2022-09-23T16:29:07;7.90;;;4.38;;
21330;SDS011;10824;51.632;4.950;2022-09-23T16:31:35;5.80;;;3.40;;
21330;SDS011;10824;51.632;4.950;2022-09-23T16:34:04;8.55;;;3.17;;
21330;SDS011;10824;51.632;4.950;2022-09-23T16:36:33;10.43;;;3.67;;
21330;SDS011;10824;51.632;4.950;2022-09-23T16:39:05;6.35;;;3.47;;
21330;SDS011;10824;51.632;4.950;2022-09-23T16:41:35;7.47;;;3.10;;
21330;SDS011;10824;51.632;4.950;2022-09-23T16:44:03;7.70;;;3.70;;
21330;SDS011;10824;51.632;4.950;2022-09-23T16:46:32;9.30;;;3.88;;
21330;SDS011;10824;51.632;4.950;2022-09-23T16:49:00;10.35;;;4.70;;
21330;SDS011;10824;51.632;4.950;2022-09-23T16:51:29;11.07;;;5.25;;
21330;SDS011;10824;51.632;4.950;2022-09-23T16:54:10;10.20;;;4.85;;
21330;SDS011;10824;51.632;4.950;2022-09-23T16:56:40;9.40;;;4.60;;
21330;SDS011;10824;51.632;4.950;2022-09-23T16:59:12;9.55;;;4.20;;
21330;SDS011;10824;51.632;4.950;2022-09-23T17:01:41;7.38;;;3.80;;
21330;SDS011;10824;51.632;4.950;2022-09-23T17:04:28;8.52;;;4.05;;
21330;SDS011;10824;51.632;4.950;2022-09-23T17:06:55;10.15;;;4.28;;
21330;SDS011;10824;51.632;4.950;2022-09-23T17:09:23;8.18;;;4.32;;
21330;SDS011;10824;51.632;4.950;2022-09-23T17:14:32;11.30;;;4.55;;
21330;SDS011;10824;51.632;4.950;2022-09-23T17:17:00;15.77;;;7.20;;
21330;SDS011;10824;51.632;4.950;2022-09-23T17:19:27;21.98;;;8.90;;
21330;SDS011;10824;51.632;4.950;2022-09-23T17:21:54;13.65;;;5.82;;
21330;SDS011;10824;51.632;4.950;2022-09-23T17:24:21;11.35;;;5.57;;
21330;SDS011;10824;51.632;4.950;2022-09-23T17:26:48;16.85;;;7.78;;
21330;SDS011;10824;51.632;4.950;2022-09-23T17:29:18;11.93;;;6.55;;
21330;SDS011;10824;51.632;4.950;2022-09-23T17:31:45;10.82;;;5.13;;
21330;SDS011;10824;51.632;4.950;2022-09-23T17:34:12;9.98;;;5.47;;
21330;SDS011;10824;51.632;4.950;2022-09-23T17:36:39;10.35;;;4.03;;
21330;SDS011;10824;51.632;4.950;2022-09-23T17:39:07;8.25;;;3.38;;
21330;SDS011;10824;51.632;4.950;2022-09-23T17:41:35;9.70;;;3.58;;
21330;SDS011;10824;51.632;4.950;2022-09-23T17:44:05;12.18;;;3.83;;
21330;SDS011;10824;51.632;4.950;2022-09-23T17:46:33;10.13;;;3.85;;
21330;SDS011;10824;51.632;4.950;2022-09-23T17:49:00;9.65;;;4.18;;
21330;SDS011;10824;51.632;4.950;2022-09-23T17:51:29;9.38;;;4.22;;
21330;SDS011;10824;51.632;4.950;2022-09-23T17:53:57;10.93;;;4.38;;
21330;SDS011;10824;51.632;4.950;2022-09-23T17:56:24;10.63;;;5.03;;
21330;SDS011;10824;51.632;4.950;2022-09-23T17:58:52;10.27;;;5.00;;
21330;SDS011;10824;51.632;4.950;2022-09-23T18:01:23;9.23;;;4.55;;
21330;SDS011;10824;51.632;4.950;2022-09-23T18:03:52;7.28;;;3.97;;
21330;SDS011;10824;51.632;4.950;2022-09-23T18:06:25;14.23;;;4.57;;
21330;SDS011;10824;51.632;4.950;2022-09-23T18:08:57;7.65;;;4.10;;